Time,TemperatureF,DewpointF,PressureIn,WindDirection,WindDirectionDegrees,WindSpeedMPH,WindSpeedGustMPH,Humidity,HourlyPrecipIn,Conditions,Clouds,dailyrainin,SoftwareType,DateUTC
2013-06-18 00:16:00,60.1,50.0,29.95,NW,306,0.0,-999.0,69,-99.99,,,0.00,weatherlink.com 1.10,2013-06-18 07:16:00,
2013-06-18 00:42:00,59.5,50.0,29.95,NW,306,0.0,-999.0,72,-99.99,,,0.00,weatherlink.com 1.10,2013-06-18 07:42:00,
2013-06-18 01:25:00,58.0,50.0,29.95,NW,306,0.0,-999.0,76,-99.99,,,0.00,weatherlink.com 1.10,2013-06-18 08:25:00,
2013-06-18 01:56:00,56.7,49.0,29.95,NW,306,0.0,-999.0,75,-99.99,,,0.00,weatherlink.com 1.10,2013-06-18 08:56:00,
2013-06-18 02:28:00,55.1,48.0,29.95,NW,306,0.0,-999.0,76,-99.99,,,0.00,weatherlink.com 1.10,2013-06-18 09:28:00,
2013-06-18 02:41:00,54.7,48.0,29.95,NW,306,0.0,-999.0,79,-99.99,,,0.00,weatherlink.com 1.10,2013-06-18 09:41:00,
2013-06-18 02:55:00,54.1,48.0,29.95,NW,306,0.0,-999.0,80,-99.99,,,0.00,weatherlink.com 1.10,2013-06-18 09:55:00,
2013-06-18 03:14:00,53.1,47.0,29.95,NW,306,0.0,-999.0,80,-99.99,,,0.00,weatherlink.com 1.10,2013-06-18 10:14:00,
2013-06-18 03:59:00,51.0,46.0,29.95,NW,306,0.0,-999.0,82,-99.99,,,0.00,weatherlink.com 1.10,2013-06-18 10:59:00,
2013-06-18 04:11:00,50.7,46.0,29.95,NW,306,0.0,-999.0,84,-99.99,,,0.00,weatherlink.com 1.10,2013-06-18 11:11:00,
2013-06-18 04:41:00,49.9,46.0,29.95,NW,306,0.0,-999.0,86,-99.99,,,0.00,weatherlink.com 1.10,2013-06-18 11:41:00,
2013-06-18 05:13:00,49.4,46.0,29.95,NW,306,0.0,-999.0,87,-99.99,,,0.00,weatherlink.com 1.10,2013-06-18 12:13:00,
2013-06-18 05:41:00,48.8,45.0,29.96,WNW,302,0.0,-999.0,88,-99.99,,,0.00,weatherlink.com 1.10,2013-06-18 12:41:00,
2013-06-18 05:57:00,48.6,45.0,29.96,WNW,302,0.0,-999.0,88,-99.99,,,0.00,weatherlink.com 1.10,2013-06-18 12:57:00,
2013-06-18 06:12:00,49.1,46.0,29.97,WNW,302,0.0,-999.0,90,-99.99,,,0.00,weatherlink.com 1.10,2013-06-18 13:12:00,
2013-06-18 06:56:00,51.0,49.0,29.97,WNW,302,0.0,-999.0,93,-99.99,,,0.00,weatherlink.com 1.10,2013-06-18 13:56:00,
2013-06-18 07:27:00,53.5,52.0,29.97,East,91,3.0,-999.0,94,-99.99,,,0.00,weatherlink.com 1.10,2013-06-18 14:27:00,
2013-06-18 07:42:00,55.0,53.0,29.97,East,91,0.0,-999.0,92,-99.99,,,0.00,weatherlink.com 1.10,2013-06-18 14:42:00,
2013-06-18 07:57:00,56.7,53.0,29.97,East,91,0.0,-999.0,86,-99.99,,,0.00,weatherlink.com 1.10,2013-06-18 14:57:00,
2013-06-18 08:28:00,61.5,50.0,29.96,NNE,21,0.0,-999.0,66,-99.99,,,0.00,weatherlink.com 1.10,2013-06-18 15:28:00,
2013-06-18 08:43:00,62.9,50.0,29.96,NE,41,0.0,-999.0,62,-99.99,,,0.00,weatherlink.com 1.10,2013-06-18 15:43:00,
2013-06-18 09:29:00,66.4,49.0,29.96,NW,313,1.0,-999.0,54,-99.99,,,0.00,weatherlink.com 1.10,2013-06-18 16:29:00,
2013-06-18 09:42:00,67.8,47.0,29.95,NW,315,1.0,-999.0,48,-99.99,,,0.00,weatherlink.com 1.10,2013-06-18 16:42:00,
2013-06-18 09:59:00,69.1,46.0,29.95,West,280,0.0,-999.0,43,-99.99,,,0.00,weatherlink.com 1.10,2013-06-18 16:59:00,
2013-06-18 10:15:00,69.1,46.0,29.95,NW,316,2.0,-999.0,43,-99.99,,,0.00,weatherlink.com 1.10,2013-06-18 17:15:00,
2013-06-18 10:29:00,69.3,46.0,29.95,NW,319,6.0,-999.0,43,-99.99,,,0.00,weatherlink.com 1.10,2013-06-18 17:29:00,
2013-06-18 10:45:00,68.8,45.0,29.95,WNW,300,2.0,-999.0,43,-99.99,,,0.00,weatherlink.com 1.10,2013-06-18 17:45:00,
2013-06-18 11:13:00,70.4,47.0,29.95,NW,315,3.0,-999.0,43,-99.99,,,0.00,weatherlink.com 1.10,2013-06-18 18:13:00,
2013-06-18 11:43:00,72.7,44.0,29.95,WNW,288,3.0,-999.0,36,-99.99,,,0.00,weatherlink.com 1.10,2013-06-18 18:43:00,
2013-06-18 12:03:00,73.9,45.0,29.94,NW,319,0.0,-999.0,36,-99.99,,,0.00,weatherlink.com 1.10,2013-06-18 19:03:00,
2013-06-18 12:21:00,74.4,44.0,29.94,West,278,3.0,-999.0,34,-99.99,,,0.00,weatherlink.com 1.10,2013-06-18 19:21:00,
2013-06-18 12:31:00,74.6,46.0,29.94,North,9,0.0,-999.0,36,-99.99,,,0.00,weatherlink.com 1.10,2013-06-18 19:31:00,
2013-06-18 12:58:00,74.7,44.0,29.93,NNW,329,3.0,-999.0,33,-99.99,,,0.00,weatherlink.com 1.10,2013-06-18 19:58:00,
2013-06-18 13:14:00,75.3,43.0,29.93,WNW,290,4.0,-999.0,32,-99.99,,,0.00,weatherlink.com 1.10,2013-06-18 20:14:00,
2013-06-18 13:44:00,76.0,41.0,29.93,West,266,3.0,-999.0,28,-99.99,,,0.00,weatherlink.com 1.10,2013-06-18 20:44:00,
2013-06-18 13:59:00,76.1,41.0,29.92,NW,313,0.0,-999.0,28,-99.99,,,0.00,weatherlink.com 1.10,2013-06-18 20:59:00,
2013-06-18 14:15:00,76.5,39.0,29.92,NW,314,0.0,-999.0,26,-99.99,,,0.00,weatherlink.com 1.10,2013-06-18 21:15:00,
2013-06-18 14:28:00,77.0,40.0,29.92,NW,317,3.0,-999.0,26,-99.99,,,0.00,weatherlink.com 1.10,2013-06-18 21:28:00,
2013-06-18 14:44:00,78.1,40.0,29.91,West,262,3.0,-999.0,25,-99.99,,,0.00,weatherlink.com 1.10,2013-06-18 21:44:00,
2013-06-18 15:15:00,77.7,47.0,29.91,WNW,295,0.0,-999.0,34,-99.99,,,0.00,weatherlink.com 1.10,2013-06-18 22:15:00,
2013-06-18 15:29:00,77.0,47.0,29.91,West,262,6.0,-999.0,34,-99.99,,,0.00,weatherlink.com 1.10,2013-06-18 22:29:00,
2013-06-18 15:47:00,76.7,48.0,29.89,West,281,2.0,-999.0,37,-99.99,,,0.00,weatherlink.com 1.10,2013-06-18 22:47:00,
2013-06-18 15:59:00,77.6,49.0,29.89,WSW,241,6.0,-999.0,36,-99.99,,,0.00,weatherlink.com 1.10,2013-06-18 22:59:00,
2013-06-18 16:15:00,76.7,48.0,29.89,West,259,4.0,-999.0,36,-99.99,,,0.00,weatherlink.com 1.10,2013-06-18 23:15:00,
2013-06-18 16:30:00,75.6,48.0,29.88,WNW,282,5.0,-999.0,38,-99.99,,,0.00,weatherlink.com 1.10,2013-06-18 23:30:00,
2013-06-18 17:02:00,75.1,48.0,29.88,WNW,301,4.0,-999.0,39,-99.99,,,0.00,weatherlink.com 1.10,2013-06-19 00:02:00,
2013-06-18 17:15:00,75.3,49.0,29.88,WSW,247,16.0,-999.0,39,-99.99,,,0.00,weatherlink.com 1.10,2013-06-19 00:15:00,
2013-06-18 18:17:00,71.1,49.0,29.88,WNW,301,3.0,-999.0,46,-99.99,,,0.00,weatherlink.com 1.10,2013-06-19 01:17:00,
2013-06-18 19:19:00,69.4,44.0,29.89,NW,305,3.0,-999.0,40,-99.99,,,0.00,weatherlink.com 1.10,2013-06-19 02:19:00,
2013-06-18 19:32:00,68.8,44.0,29.89,NW,313,0.0,-999.0,41,-99.99,,,0.00,weatherlink.com 1.10,2013-06-19 02:32:00,
2013-06-18 20:31:00,65.2,45.0,29.90,WNW,286,0.0,-999.0,48,-99.99,,,0.00,weatherlink.com 1.10,2013-06-19 03:31:00,
2013-06-18 21:03:00,63.1,44.0,29.91,WNW,289,3.0,-999.0,51,-99.99,,,0.00,weatherlink.com 1.10,2013-06-19 04:03:00,
2013-06-18 21:31:00,61.6,45.0,29.92,WNW,302,4.0,-999.0,54,-99.99,,,0.00,weatherlink.com 1.10,2013-06-19 04:31:00,
2013-06-18 22:02:00,60.4,44.0,29.94,NW,326,2.0,-999.0,56,-99.99,,,0.00,weatherlink.com 1.10,2013-06-19 05:02:00,
2013-06-18 22:18:00,60.1,44.0,29.94,NW,317,0.0,-999.0,56,-99.99,,,0.00,weatherlink.com 1.10,2013-06-19 05:18:00,
2013-06-18 22:31:00,59.8,44.0,29.94,NW,317,2.0,-999.0,57,-99.99,,,0.00,weatherlink.com 1.10,2013-06-19 05:31:00,
2013-06-18 22:47:00,59.5,44.0,29.94,NW,317,0.0,-999.0,57,-99.99,,,0.00,weatherlink.com 1.10,2013-06-19 05:47:00,
2013-06-18 23:18:00,58.6,44.0,29.94,NW,319,3.0,-999.0,59,-99.99,,,0.00,weatherlink.com 1.10,2013-06-19 06:18:00,
2013-06-18 23:34:00,58.1,43.0,29.94,NW,320,4.0,-999.0,58,-99.99,,,0.00,weatherlink.com 1.10,2013-06-19 06:34:00,
2013-06-18 23:48:00,58.1,43.0,29.94,NW,320,6.0,-999.0,58,-99.99,,,0.00,weatherlink.com 1.10,2013-06-19 06:48:00,